Freeport, Bahamas

7:38 AM EDT on May 26, 2017 (GMT -0400)
Grand Bahama International | | Change Station

Elev 36 ft 26.55 °N, 78.70 °W | Updated 38 minutes ago

Mostly Cloudy
Mostly Cloudy
81 °F
Feels Like 88 °F
N
0
Wind Variable Wind from North

Today
High -- | Low -- °F
--% Chance of Precip.
Yesterday
High -- | Low -- °F
Precip. -- in
Pressure 30.00 in
Visibility 5.0 miles
Clouds Few 1300 ft
Mostly Cloudy 22000 ft
Heat Index 88 °F
Dew Point 79 °F
Humidity 94%
Rainfall 0.00 in
Snow Depth Not available.
6:23 AM 8:00 PM
New Moon, 1% visible
METAR MYGF 261100Z 00000KT 8000 FEW013TCU BKN220 27/26 A3000 RMK TCU DSNT SW AND SE
Pressure 30.00 in
Visibility 5.0 miles
Clouds Few 1300 ft
Mostly Cloudy 22000 ft
Heat Index 88 °F
Dew Point 79 °F
Humidity 94%
Rainfall 0.00 in
Snow Depth Not available.
6:23 AM 8:00 PM
New Moon, 1% visible
METAR MYGF 261100Z 00000KT 8000 FEW013TCU BKN220 27/26 A3000 RMK TCU DSNT SW AND SE

Get Severe Weather Alerts

Thanks for signing up!

Be on the lookout for a verification email in your inbox.

You'll start receiving the daily forecast at 6 AM.

×

10-Day Weather Forecast

No radar image for this location.
×

Almanac

Astronomy

May. 26, 2017 Rise Set
Actual Time
Civil Twilight
Nautical Twilight
Astronomical Twilight
Moon
Length of Visible Light
Length of Day
Tomorrow will be .
, % of the Moon is Illuminated

Today's Extremes

Country Highs Country Lows

Community

WunderPhotos

Category 6

Welcome to Category 6. This is the collective home for Weather Underground's featured writeups by Dr. Jeff Masters (right), Bob Henson (left), Chris Burt, and other regular contributors.

Nearby

Air Quality

  Air Quality AQ Index Pollutant
Not available.

Snow Depth

Station Depth Elevation

Earthquake Activity

City Distance Mag. Time & Date
Minimum magnitude displayed is 2.5.

Coastal Water Temperatures

Place Temperature

Stations

Nearby Weather Stations

Station Location Temp. Windchill Dew Point Humidity Wind Precip. Elev Updated Type